createdAt,value
2023-03-13T00:01:30.761Z,100636.50
2023-03-13T00:03:58.025Z,100642.56
2023-03-13T00:06:27.782Z,100646.87
2023-03-13T00:08:56.194Z,100650.37
2023-03-13T00:11:23.339Z,100646.00
2023-03-13T00:13:54.808Z,100643.87
2023-03-13T00:16:21.964Z,100643.44
2023-03-13T00:18:51.674Z,100643.00
2023-03-13T00:21:20.885Z,100639.22
2023-03-13T00:23:48.735Z,100642.00
2023-03-13T00:26:19.235Z,100644.78
2023-03-13T00:28:46.709Z,100647.41
2023-03-13T00:31:15.122Z,100639.59
2023-03-13T00:33:47.903Z,100642.31
2023-03-13T00:36:18.711Z,100642.47
2023-03-13T00:38:46.281Z,100639.88
2023-03-13T00:41:16.822Z,100633.34
2023-03-13T00:43:45.311Z,100632.28
2023-03-13T00:46:13.955Z,100637.63
2023-03-13T00:48:40.932Z,100632.41
2023-03-13T00:51:08.367Z,100634.78
2023-03-13T00:53:35.627Z,100632.84
2023-03-13T00:56:04.614Z,100635.84
2023-03-13T00:58:35.266Z,100627.75
2023-03-13T01:01:09.196Z,100620.44
2023-03-13T01:03:37.703Z,100611.84
2023-03-13T01:06:07.177Z,100606.97
2023-03-13T01:08:34.841Z,100604.22
2023-03-13T01:11:04.698Z,100602.38
2023-03-13T01:13:34.008Z,100592.25
2023-03-13T01:16:09.962Z,100595.84
2023-03-13T01:18:44.986Z,100594.69
2023-03-13T01:21:14.389Z,100583.56
2023-03-13T01:23:43.324Z,100588.88
2023-03-13T01:26:12.466Z,100584.59
2023-03-13T01:28:40.644Z,100577.59
2023-03-13T01:31:17.794Z,100582.97
2023-03-13T01:33:46.200Z,100588.41
2023-03-13T01:36:13.924Z,100582.75
2023-03-13T01:38:41.758Z,100585.47
2023-03-13T01:41:12.558Z,100577.31
2023-03-13T01:43:40.128Z,100572.72
2023-03-13T01:46:25.613Z,100575.19
2023-03-13T01:49:04.634Z,100565.50
2023-03-13T01:51:38.055Z,100564.62
2023-03-13T01:54:26.297Z,100559.44
2023-03-13T01:57:11.822Z,100559.56
2023-03-13T01:59:48.531Z,100553.66
2023-03-13T02:02:16.903Z,100558.81
2023-03-13T02:04:50.876Z,100560.97
2023-03-13T02:07:23.943Z,100568.28
2023-03-13T02:09:56.854Z,100555.34
2023-03-13T02:12:31.640Z,100559.78
2023-03-13T02:15:06.056Z,100555.37
2023-03-13T02:17:55.008Z,100552.25
2023-03-13T02:20:26.504Z,100553.16
2023-03-13T02:23:15.940Z,100557.06
2023-03-13T02:25:52.151Z,100554.19
2023-03-13T02:28:27.895Z,100553.38
2023-03-13T02:30:57.153Z,100565.31
2023-03-13T02:33:29.520Z,100556.91
2023-03-13T02:35:57.377Z,100556.97
2023-03-13T02:38:27.851Z,100557.41
2023-03-13T02:40:57.033Z,100554.94
2023-03-13T02:43:31.914Z,100556.25
2023-03-13T02:46:05.578Z,100548.56
2023-03-13T02:48:39.122Z,100545.63
2023-03-13T02:51:22.775Z,100546.13
2023-03-13T02:53:52.776Z,100549.81
2023-03-13T02:56:24.525Z,100542.81
2023-03-13T02:58:51.426Z,100549.69
2023-03-13T03:01:19.023Z,100541.06
2023-03-13T03:03:46.140Z,100545.37
2023-03-13T03:06:23.909Z,100544.53
2023-03-13T03:08:51.349Z,100539.28
2023-03-13T03:11:18.688Z,100540.31
2023-03-13T03:13:46.053Z,100534.63
2023-03-13T03:16:18.872Z,100542.53
2023-03-13T03:18:47.012Z,100541.34
2023-03-13T03:21:14.423Z,100541.75
2023-03-13T03:23:41.593Z,100546.75
2023-03-13T03:26:13.222Z,100539.03
2023-03-13T03:29:00.193Z,100542.84
2023-03-13T03:31:27.905Z,100558.44
2023-03-13T03:33:57.447Z,100553.47
2023-03-13T03:36:24.704Z,100563.41
2023-03-13T03:38:52.338Z,100554.84
2023-03-13T03:41:19.540Z,100559.88
2023-03-13T03:43:48.188Z,100556.00
2023-03-13T03:46:16.136Z,100563.53
2023-03-13T03:48:43.157Z,100552.78
2023-03-13T03:51:10.638Z,100547.69
2023-03-13T03:53:37.518Z,100548.87
2023-03-13T03:56:04.693Z,100552.25
2023-03-13T03:58:31.651Z,100550.22
2023-03-13T04:00:59.652Z,100545.53
2023-03-13T04:03:26.907Z,100558.44
2023-03-13T04:05:54.095Z,100563.53
2023-03-13T04:08:41.022Z,100567.59
2023-03-13T04:11:26.136Z,100583.84
2023-03-13T04:13:52.947Z,100576.94
2023-03-13T04:16:20.246Z,100573.13
2023-03-13T04:18:48.554Z,100570.25
2023-03-13T04:21:15.725Z,100565.75
2023-03-13T04:23:42.655Z,100570.94
2023-03-13T04:26:09.639Z,100569.37
2023-03-13T04:28:36.532Z,100560.56
2023-03-13T04:31:03.442Z,100567.59
2023-03-13T04:33:30.576Z,100565.13
2023-03-13T04:35:57.577Z,100573.38
2023-03-13T04:38:24.877Z,100575.69
2023-03-13T04:41:11.940Z,100580.16
2023-03-13T04:43:38.974Z,100595.34
2023-03-13T04:46:06.582Z,100592.38
2023-03-13T04:48:34.156Z,100588.91
2023-03-13T04:51:02.424Z,100582.31
2023-03-13T04:53:29.765Z,100598.34
2023-03-13T04:55:56.920Z,100591.19
2023-03-13T04:58:24.346Z,100584.31
2023-03-13T05:00:51.476Z,100578.34
2023-03-13T05:03:18.860Z,100573.78
2023-03-13T05:05:45.865Z,100574.81
2023-03-13T05:08:15.475Z,100568.53
2023-03-13T05:10:43.953Z,100570.47
2023-03-13T05:13:11.897Z,100557.88
2023-03-13T05:15:38.941Z,100570.25
2023-03-13T05:18:06.398Z,100575.13
2023-03-13T05:20:33.426Z,100574.81
2023-03-13T05:23:00.842Z,100573.19
2023-03-13T05:25:28.411Z,100562.78
2023-03-13T05:27:55.964Z,100560.44
2023-03-13T05:30:23.108Z,100560.59
2023-03-13T05:32:50.270Z,100554.03
2023-03-13T05:35:17.497Z,100555.59
2023-03-13T05:37:46.021Z,100561.19
2023-03-13T05:40:14.620Z,100562.87
2023-03-13T05:42:42.517Z,100569.53
2023-03-13T05:45:11.017Z,100566.66
2023-03-13T05:47:39.188Z,100564.28
2023-03-13T05:50:08.087Z,100561.09
2023-03-13T05:52:36.028Z,100558.03
2023-03-13T05:55:03.142Z,100572.69
2023-03-13T05:57:30.082Z,100570.31
2023-03-13T05:59:57.031Z,100568.69
2023-03-13T06:02:24.044Z,100570.00
2023-03-13T06:04:51.144Z,100569.50
2023-03-13T06:07:18.282Z,100572.34
2023-03-13T06:09:45.247Z,100565.34
2023-03-13T06:12:12.771Z,100563.59
2023-03-13T06:14:39.979Z,100564.25
2023-03-13T06:17:07.228Z,100554.53
2023-03-13T06:19:34.147Z,100557.00
2023-03-13T06:22:01.599Z,100552.94
2023-03-13T06:24:28.767Z,100549.72
2023-03-13T06:26:55.982Z,100566.41
2023-03-13T06:29:30.447Z,100557.84
2023-03-13T06:31:58.524Z,100551.88
2023-03-13T06:34:25.706Z,100548.87
2023-03-13T06:36:52.732Z,100557.94
2023-03-13T06:39:19.858Z,100546.97
2023-03-13T06:41:46.772Z,100548.47
2023-03-13T06:44:14.443Z,100560.97
2023-03-13T06:46:42.310Z,100555.75
2023-03-13T06:49:10.120Z,100543.03
2023-03-13T06:51:37.538Z,100545.97
2023-03-13T06:54:04.585Z,100552.75
2023-03-13T06:56:32.530Z,100548.91
2023-03-13T06:59:00.147Z,100552.06
2023-03-13T07:01:27.453Z,100553.00
2023-03-13T07:03:54.877Z,100545.44
2023-03-13T07:06:21.998Z,100552.78
2023-03-13T07:08:49.036Z,100556.34
2023-03-13T07:11:16.537Z,100533.78
2023-03-13T07:13:43.645Z,100533.84
2023-03-13T07:16:13.574Z,100532.09
2023-03-13T07:18:45.065Z,100519.84
2023-03-13T07:21:13.028Z,100513.25
2023-03-13T07:23:40.132Z,100515.91
2023-03-13T07:26:11.024Z,100516.62
2023-03-13T07:28:38.199Z,100512.06
2023-03-13T07:31:12.736Z,100508.97
2023-03-13T07:33:40.419Z,100518.03
2023-03-13T07:36:08.185Z,100518.44
2023-03-13T07:38:36.017Z,100527.56
2023-03-13T07:41:05.047Z,100526.06
2023-03-13T07:43:32.624Z,100519.34
2023-03-13T07:46:03.997Z,100522.34
2023-03-13T07:48:35.820Z,100522.34
2023-03-13T07:51:03.827Z,100527.75
2023-03-13T07:53:33.007Z,100503.88
2023-03-13T07:56:06.411Z,100503.91
2023-03-13T07:58:40.859Z,100497.66
2023-03-13T08:01:20.356Z,100493.28
2023-03-13T08:03:52.842Z,100501.37
2023-03-13T08:06:23.747Z,100480.78
2023-03-13T08:08:51.991Z,100488.16
2023-03-13T08:11:22.305Z,100490.66
2023-03-13T08:13:52.038Z,100505.06
2023-03-13T08:16:22.593Z,100500.63
2023-03-13T08:18:52.599Z,100489.75
2023-03-13T08:21:22.496Z,100492.97
2023-03-13T08:23:50.124Z,100491.47
2023-03-13T08:26:20.316Z,100476.41
2023-03-13T08:28:48.930Z,100471.66
2023-03-13T08:31:19.027Z,100474.37
2023-03-13T08:33:49.370Z,100464.09
2023-03-13T08:36:23.360Z,100457.50
2023-03-13T08:38:51.791Z,100446.28
2023-03-13T08:41:24.540Z,100440.56
2023-03-13T08:43:55.590Z,100440.97
2023-03-13T08:46:23.427Z,100437.47
2023-03-13T08:48:55.311Z,100430.94
2023-03-13T08:51:24.544Z,100423.41
2023-03-13T08:53:52.385Z,100419.28
2023-03-13T08:56:21.993Z,100413.56
2023-03-13T08:58:53.698Z,100414.84
2023-03-13T09:01:21.939Z,100415.75
2023-03-13T09:03:49.352Z,100434.31
2023-03-13T09:06:17.234Z,100414.13
2023-03-13T09:08:44.851Z,100416.00
2023-03-13T09:11:20.138Z,100411.19
2023-03-13T09:13:50.340Z,100405.75
2023-03-13T09:16:25.621Z,100419.75
2023-03-13T09:18:53.499Z,100409.97
2023-03-13T09:21:23.036Z,100409.78
2023-03-13T09:23:51.201Z,100406.63
2023-03-13T09:26:22.262Z,100413.13
2023-03-13T09:28:50.235Z,100399.16
2023-03-13T09:31:20.384Z,100389.94
2023-03-13T09:33:48.927Z,100400.09
2023-03-13T09:36:19.193Z,100380.19
2023-03-13T09:38:47.990Z,100399.41
2023-03-13T09:41:17.707Z,100391.66
2023-03-13T09:43:50.595Z,100378.53
2023-03-13T09:46:28.763Z,100382.41
2023-03-13T09:49:00.457Z,100371.53
2023-03-13T09:51:38.653Z,100378.03
2023-03-13T09:54:14.641Z,100371.16
2023-03-13T09:56:51.353Z,100365.87
2023-03-13T09:59:24.855Z,100361.84
2023-03-13T10:01:55.800Z,100359.06
2023-03-13T10:04:22.814Z,100363.13
2023-03-13T10:06:50.001Z,100353.16
2023-03-13T10:09:23.222Z,100352.47
2023-03-13T10:12:03.093Z,100344.78
2023-03-13T10:14:47.340Z,100329.97
2023-03-13T10:17:26.651Z,100329.03
2023-03-13T10:20:01.582Z,100326.75
2023-03-13T10:22:31.642Z,100330.00
2023-03-13T10:25:07.893Z,100327.34
2023-03-13T10:27:54.054Z,100332.69
2023-03-13T10:30:25.974Z,100319.22
2023-03-13T10:33:07.554Z,100324.25
2023-03-13T10:35:43.287Z,100318.75
2023-03-13T10:38:20.741Z,100306.69
2023-03-13T10:41:28.512Z,100307.09
2023-03-13T10:44:14.815Z,100318.41
2023-03-13T10:46:46.793Z,100310.06
2023-03-13T10:49:17.294Z,100302.06
2023-03-13T10:51:53.723Z,100289.44
2023-03-13T10:54:26.203Z,100290.31
2023-03-13T10:57:13.792Z,100276.66
2023-03-13T10:59:48.268Z,100277.69
2023-03-13T11:02:34.704Z,100271.22
2023-03-13T11:05:38.168Z,100265.84
2023-03-13T11:08:24.464Z,100263.16
2023-03-13T11:11:00.202Z,100258.91
2023-03-13T11:13:37.301Z,100254.44
2023-03-13T11:16:25.823Z,100247.41
2023-03-13T11:19:25.556Z,100246.59
2023-03-13T11:22:13.054Z,100239.47
2023-03-13T11:24:49.209Z,100229.84
2023-03-13T11:27:19.347Z,100223.13
2023-03-13T11:30:24.289Z,100217.84
2023-03-13T11:33:05.089Z,100217.41
2023-03-13T11:36:20.348Z,100210.53
2023-03-13T11:38:54.538Z,100216.34
2023-03-13T11:41:44.295Z,100210.06
2023-03-13T11:44:24.584Z,100203.25
2023-03-13T11:46:57.562Z,100190.34
2023-03-13T11:49:41.065Z,100181.97
2023-03-13T11:52:18.768Z,100171.22
2023-03-13T11:54:50.960Z,100173.13
2023-03-13T11:57:35.532Z,100174.00
2023-03-13T12:00:47.678Z,100167.88
2023-03-13T12:03:27.121Z,100160.75
2023-03-13T12:05:57.658Z,100152.37
2023-03-13T12:08:32.277Z,100154.41
2023-03-13T12:11:13.789Z,100152.53
2023-03-13T12:14:14.072Z,100147.66
2023-03-13T12:16:50.136Z,100132.37
2023-03-13T12:19:27.384Z,100133.81
2023-03-13T12:22:00.811Z,100121.13
2023-03-13T12:24:28.035Z,100120.25
2023-03-13T12:27:04.870Z,100120.25
2023-03-13T12:29:46.530Z,100118.53
2023-03-13T12:32:18.468Z,100111.25
2023-03-13T12:35:12.950Z,100123.62
2023-03-13T12:37:47.928Z,100103.66
2023-03-13T12:40:38.721Z,100105.97
2023-03-13T12:43:14.871Z,100103.62
2023-03-13T12:46:02.326Z,100092.16
2023-03-13T12:49:09.519Z,100089.03
2023-03-13T12:52:07.507Z,100089.50
2023-03-13T12:55:04.674Z,100075.97
2023-03-13T12:57:43.540Z,100071.22
2023-03-13T13:00:20.595Z,100068.38
2023-03-13T13:02:48.025Z,100058.78
2023-03-13T13:05:24.791Z,100063.63
2023-03-13T13:07:56.748Z,100065.94
2023-03-13T13:10:29.007Z,100040.28
2023-03-13T13:13:14.355Z,100035.19
2023-03-13T13:16:17.893Z,100044.31
2023-03-13T13:18:45.045Z,100030.16
2023-03-13T13:21:26.961Z,100018.00
2023-03-13T13:23:56.871Z,100023.16
2023-03-13T13:26:27.055Z,100016.63
2023-03-13T13:28:55.154Z,100013.03
2023-03-13T13:31:57.216Z,100007.44
2023-03-13T13:34:40.369Z,100010.66
2023-03-13T13:37:15.141Z,100023.63
2023-03-13T13:39:50.477Z,100015.81
2023-03-13T13:42:33.867Z,100011.38
2023-03-13T13:45:09.332Z,100000.44
2023-03-13T13:47:39.432Z,100000.66
2023-03-13T13:50:27.712Z,100001.47
2023-03-13T13:53:33.464Z,99990.25
2023-03-13T13:56:03.674Z,99985.63
2023-03-13T13:58:32.844Z,99984.53
2023-03-13T14:01:17.352Z,99976.56
2023-03-13T14:03:53.433Z,99983.59
2023-03-13T14:06:42.979Z,99974.31
2023-03-13T14:09:40.551Z,99966.03
2023-03-13T14:12:33.670Z,99963.78
2023-03-13T14:15:23.406Z,99966.66
2023-03-13T14:17:55.464Z,99969.19
2023-03-13T14:20:37.078Z,99972.72
2023-03-13T14:23:10.199Z,99952.91
2023-03-13T14:25:51.257Z,99949.22
2023-03-13T14:28:20.716Z,99944.41
2023-03-13T14:30:50.793Z,99938.22
2023-03-13T14:33:18.272Z,99933.91
2023-03-13T14:35:45.957Z,99925.41
2023-03-13T14:38:24.700Z,99914.34
2023-03-13T14:40:53.353Z,99903.13
2023-03-13T14:43:41.176Z,99897.31
2023-03-13T14:46:31.337Z,99904.03
2023-03-13T14:49:08.372Z,99899.53
2023-03-13T14:51:39.174Z,99899.75
2023-03-13T14:54:06.578Z,99890.47
2023-03-13T14:56:35.337Z,99899.94
2023-03-13T14:59:17.117Z,99907.00
2023-03-13T15:01:44.997Z,99905.59
2023-03-13T15:04:12.564Z,99896.81
2023-03-13T15:06:39.746Z,99903.34
2023-03-13T15:09:24.220Z,99901.81
2023-03-13T15:12:01.586Z,99905.00
2023-03-13T15:14:38.333Z,99890.31
2023-03-13T15:17:14.672Z,99886.09
2023-03-13T15:19:42.834Z,99879.16
2023-03-13T15:22:14.287Z,99873.78
2023-03-13T15:24:44.070Z,99879.34
2023-03-13T15:27:20.898Z,99873.06
2023-03-13T15:29:48.161Z,99866.13
2023-03-13T15:32:37.766Z,99865.88
2023-03-13T15:35:24.265Z,99869.19
2023-03-13T15:37:51.705Z,99868.78
2023-03-13T15:40:20.008Z,99864.53
2023-03-13T15:42:51.680Z,99868.72
2023-03-13T15:45:18.994Z,99852.75
2023-03-13T15:47:46.505Z,99853.00
2023-03-13T15:50:15.164Z,99844.16
2023-03-13T15:52:45.081Z,99829.16
2023-03-13T15:55:13.476Z,99842.22
2023-03-13T15:57:47.276Z,99834.84
2023-03-13T16:00:27.930Z,99840.59
2023-03-13T16:02:55.035Z,99832.81
2023-03-13T16:05:22.177Z,99833.22
2023-03-13T16:07:49.304Z,99832.72
2023-03-13T16:10:25.225Z,99833.97
2023-03-13T16:12:53.481Z,99832.72
2023-03-13T16:15:21.099Z,99832.25
2023-03-13T16:17:48.192Z,99830.94
2023-03-13T16:20:19.156Z,99831.22
2023-03-13T16:22:46.236Z,99828.72
2023-03-13T16:25:16.705Z,99829.06
2023-03-13T16:27:44.418Z,99830.00
2023-03-13T16:30:20.784Z,99833.25
2023-03-13T16:32:47.906Z,99824.63
2023-03-13T16:35:15.009Z,99820.94
2023-03-13T16:37:42.328Z,99822.47
2023-03-13T16:40:33.208Z,99816.00
2023-03-13T16:43:01.237Z,99820.78
2023-03-13T16:45:28.526Z,99816.91
2023-03-13T16:47:55.577Z,99813.44
2023-03-13T16:50:26.992Z,99812.91
2023-03-13T16:52:55.010Z,99814.72
2023-03-13T16:55:28.289Z,99811.59
2023-03-13T16:58:01.262Z,99817.87
2023-03-13T17:00:30.936Z,99815.44
2023-03-13T17:02:58.402Z,99806.34
2023-03-13T17:05:27.192Z,99804.00
2023-03-13T17:07:54.411Z,99801.00
2023-03-13T17:10:25.031Z,99805.66
2023-03-13T17:12:52.252Z,99808.69
2023-03-13T17:15:20.593Z,99818.31
2023-03-13T17:17:52.237Z,99808.53
2023-03-13T17:20:24.683Z,99821.84
2023-03-13T17:22:51.752Z,99813.19
2023-03-13T17:25:19.411Z,99807.72
2023-03-13T17:27:49.512Z,99814.09
2023-03-13T17:30:16.515Z,99824.19
2023-03-13T17:32:43.685Z,99813.66
2023-03-13T17:35:10.744Z,99810.69
2023-03-13T17:37:39.795Z,99812.03
2023-03-13T17:40:16.498Z,99800.47
2023-03-13T17:42:43.795Z,99805.22
2023-03-13T17:45:11.441Z,99808.97
2023-03-13T17:47:39.002Z,99803.91
2023-03-13T17:50:24.556Z,99802.03
2023-03-13T17:52:51.617Z,99797.47
2023-03-13T17:55:19.237Z,99785.81
2023-03-13T17:57:48.080Z,99786.94
2023-03-13T18:00:30.396Z,99780.31
2023-03-13T18:02:57.758Z,99774.13
2023-03-13T18:05:25.852Z,99774.81
2023-03-13T18:07:56.271Z,99780.31
2023-03-13T18:10:29.156Z,99776.38
2023-03-13T18:12:57.143Z,99778.41
2023-03-13T18:15:26.430Z,99776.66
2023-03-13T18:17:53.951Z,99762.84
2023-03-13T18:20:25.833Z,99774.16
2023-03-13T18:22:54.288Z,99769.69
2023-03-13T18:25:24.103Z,99774.16
2023-03-13T18:27:51.090Z,99772.31
2023-03-13T18:30:21.962Z,99764.22
2023-03-13T18:32:49.568Z,99752.31
2023-03-13T18:35:17.593Z,99753.59
2023-03-13T18:37:46.751Z,99756.00
2023-03-13T18:40:18.593Z,99745.50
2023-03-13T18:42:46.026Z,99736.88
2023-03-13T18:45:18.431Z,99731.50
2023-03-13T18:47:46.042Z,99731.97
2023-03-13T18:50:27.517Z,99720.03
2023-03-13T18:52:56.459Z,99716.31
2023-03-13T18:55:30.342Z,99712.03
2023-03-13T18:57:57.961Z,99707.75
2023-03-13T19:00:31.017Z,99700.34
2023-03-13T19:02:58.273Z,99703.22
2023-03-13T19:05:25.354Z,99707.12
2023-03-13T19:07:52.349Z,99713.47
2023-03-13T19:10:31.429Z,99709.31
2023-03-13T19:12:58.527Z,99702.50
2023-03-13T19:15:29.198Z,99706.13
2023-03-13T19:17:59.939Z,99703.19
2023-03-13T19:20:28.072Z,99707.16
2023-03-13T19:22:58.164Z,99699.88
2023-03-13T19:25:25.269Z,99704.78
2023-03-13T19:27:52.186Z,99701.06
2023-03-13T19:30:25.484Z,99709.13
2023-03-13T19:32:52.907Z,99714.31
2023-03-13T19:35:22.380Z,99706.75
2023-03-13T19:37:49.962Z,99701.13
2023-03-13T19:40:26.841Z,99692.34
2023-03-13T19:42:53.812Z,99692.75
2023-03-13T19:45:22.297Z,99699.50
2023-03-13T19:47:49.435Z,99695.19
2023-03-13T19:50:19.255Z,99682.06
2023-03-13T19:52:46.467Z,99683.47
2023-03-13T19:55:13.931Z,99675.38
2023-03-13T19:57:41.285Z,99669.56
2023-03-13T20:00:14.217Z,99675.03
2023-03-13T20:02:41.884Z,99669.75
2023-03-13T20:05:10.403Z,99666.47
2023-03-13T20:07:37.781Z,99670.38
2023-03-13T20:10:05.640Z,99659.28
2023-03-13T20:12:34.274Z,99645.66
2023-03-13T20:15:01.312Z,99646.09
2023-03-13T20:17:28.293Z,99644.84
2023-03-13T20:19:55.569Z,99639.72
2023-03-13T20:22:22.539Z,99629.50
2023-03-13T20:24:49.542Z,99630.75
2023-03-13T20:27:16.432Z,99620.34
2023-03-13T20:29:43.473Z,99609.34
2023-03-13T20:32:11.520Z,99602.25
2023-03-13T20:34:38.448Z,99597.56
2023-03-13T20:37:05.698Z,99588.56
2023-03-13T20:39:34.395Z,99586.62
2023-03-13T20:42:03.241Z,99585.19
2023-03-13T20:44:30.355Z,99590.56
2023-03-13T20:46:57.236Z,99585.00
2023-03-13T20:49:24.283Z,99579.16
2023-03-13T20:51:51.147Z,99573.22
2023-03-13T20:54:18.033Z,99561.41
2023-03-13T20:56:44.872Z,99555.16
2023-03-13T20:59:11.746Z,99541.78
2023-03-13T21:01:38.665Z,99538.41
2023-03-13T21:04:05.646Z,99539.75
2023-03-13T21:06:32.763Z,99540.19
2023-03-13T21:08:59.855Z,99541.41
2023-03-13T21:11:26.723Z,99537.44
2023-03-13T21:13:53.650Z,99529.69
2023-03-13T21:16:20.548Z,99526.84
2023-03-13T21:18:47.836Z,99521.13
2023-03-13T21:21:17.548Z,99513.94
2023-03-13T21:23:45.566Z,99520.94
2023-03-13T21:26:13.661Z,99526.44
2023-03-13T21:28:41.209Z,99515.78
2023-03-13T21:31:13.567Z,99513.50
2023-03-13T21:33:43.331Z,99502.22
2023-03-13T21:36:11.624Z,99502.84
2023-03-13T21:38:38.792Z,99492.50
2023-03-13T21:41:10.789Z,99500.13
2023-03-13T21:43:40.632Z,99506.78
2023-03-13T21:46:08.615Z,99498.53
2023-03-13T21:48:35.530Z,99498.22
2023-03-13T21:51:02.396Z,99503.56
2023-03-13T21:53:29.303Z,99495.78
2023-03-13T21:55:56.187Z,99497.09
2023-03-13T21:58:23.061Z,99484.66
2023-03-13T22:00:54.884Z,99484.91
2023-03-13T22:03:22.584Z,99477.75
2023-03-13T22:05:49.628Z,99483.63
2023-03-13T22:08:16.544Z,99474.53
2023-03-13T22:10:51.909Z,99476.28
2023-03-13T22:13:19.042Z,99473.56
2023-03-13T22:15:46.808Z,99477.13
2023-03-13T22:18:17.288Z,99474.69
2023-03-13T22:20:44.789Z,99464.41
2023-03-13T22:23:12.428Z,99467.94
2023-03-13T22:25:40.895Z,99459.50
2023-03-13T22:28:07.895Z,99461.44
2023-03-13T22:30:35.511Z,99455.78
2023-03-13T22:33:04.006Z,99464.56
2023-03-13T22:35:30.950Z,99461.31
2023-03-13T22:37:58.108Z,99470.28
2023-03-13T22:40:25.192Z,99467.13
2023-03-13T22:42:52.070Z,99462.03
2023-03-13T22:45:19.522Z,99462.41
2023-03-13T22:47:46.459Z,99465.06
2023-03-13T22:50:13.839Z,99463.03
2023-03-13T22:52:41.095Z,99460.69
2023-03-13T22:55:08.425Z,99457.69
2023-03-13T22:57:35.441Z,99450.84
2023-03-13T23:00:02.356Z,99450.72
2023-03-13T23:02:29.395Z,99454.06
2023-03-13T23:04:58.690Z,99447.41
2023-03-13T23:07:28.608Z,99440.62
2023-03-13T23:09:56.190Z,99437.41
2023-03-13T23:12:24.533Z,99436.13
2023-03-13T23:14:52.509Z,99445.37
2023-03-13T23:17:19.391Z,99446.94
2023-03-13T23:19:46.453Z,99434.03
2023-03-13T23:22:17.994Z,99435.81
2023-03-13T23:24:45.199Z,99430.41
2023-03-13T23:27:12.299Z,99412.81
2023-03-13T23:29:39.369Z,99424.94
2023-03-13T23:32:06.919Z,99417.56
2023-03-13T23:34:35.824Z,99412.72
2023-03-13T23:37:03.209Z,99407.28
2023-03-13T23:39:30.266Z,99410.56
2023-03-13T23:41:57.161Z,99404.31
2023-03-13T23:44:24.049Z,99402.12
2023-03-13T23:46:50.973Z,99389.13
2023-03-13T23:49:17.811Z,99393.69
2023-03-13T23:51:44.662Z,99386.59
2023-03-13T23:54:11.563Z,99377.56
2023-03-13T23:56:38.466Z,99369.37
2023-03-13T23:59:05.449Z,99368.69
